Time;durP1;ratioP1;P1;durP2;ratioP2;P2;SDS_P1;SDS_P2;PMS_P1;PMS_P2;Temp;Humidity;BMP_temperature;BMP_pressure;BME280_temperature;BME280_humidity;BME280_pressure;Samples;Min_cycle;Max_cycle;Signal;HPM_P1;HPM_P2
2022/06/27 00:00:58;;;;;;;5.35;2.45;;;18.60;99.90;;;;;;5062342;28;37931;-87
2022/06/27 00:03:24;;;;;;;4.07;2.50;;;18.60;99.90;;;;;;5042587;28;39115;-87
2022/06/27 00:05:51;;;;;;;3.88;2.33;;;18.60;99.90;;;;;;5062365;28;37888;-87
2022/06/27 00:08:17;;;;;;;4.68;2.70;;;18.60;99.90;;;;;;5038159;28;38908;-87
2022/06/27 00:10:43;;;;;;;3.63;2.80;;;18.60;99.90;;;;;;5048029;28;38597;-87
2022/06/27 00:13:10;;;;;;;4.60;2.65;;;18.60;99.90;;;;;;5057488;28;36787;-87
2022/06/27 00:15:36;;;;;;;5.07;2.80;;;18.60;99.90;;;;;;5045879;28;39697;-89
2022/06/27 00:18:02;;;;;;;6.55;2.97;;;18.60;99.90;;;;;;5062840;28;38084;-86
2022/06/27 00:20:28;;;;;;;3.65;2.50;;;18.60;99.90;;;;;;5043162;28;37112;-87
2022/06/27 00:22:55;;;;;;;5.72;2.75;;;18.60;99.90;;;;;;5043386;28;36041;-87
2022/06/27 00:25:21;;;;;;;4.57;2.85;;;18.60;99.90;;;;;;5052327;28;39129;-87
2022/06/27 00:27:47;;;;;;;2.55;2.35;;;18.60;99.90;;;;;;5049203;28;39115;-86
2022/06/27 00:30:13;;;;;;;4.78;2.50;;;18.60;99.90;;;;;;5045335;28;38724;-87
2022/06/27 00:32:40;;;;;;;5.18;3.35;;;18.60;99.90;;;;;;5046554;28;36305;-88
2022/06/27 00:35:07;;;;;;;3.42;2.55;;;18.60;99.90;;;;;;5044868;28;38514;-88
2022/06/27 00:37:33;;;;;;;4.35;2.80;;;18.50;99.90;;;;;;5061183;28;37999;-89
2022/06/27 00:40:00;;;;;;;4.80;3.13;;;18.50;99.90;;;;;;5048746;28;39370;-88
2022/06/27 00:42:26;;;;;;;5.50;2.95;;;18.50;99.90;;;;;;5040629;28;38813;-87
2022/06/27 00:44:52;;;;;;;6.10;3.15;;;18.40;99.90;;;;;;5061694;28;39075;-87
2022/06/27 00:47:18;;;;;;;6.00;2.60;;;18.50;99.90;;;;;;5047959;28;39180;-88
2022/06/27 00:49:44;;;;;;;5.22;2.97;;;18.40;99.90;;;;;;5044144;28;38199;-88
2022/06/27 00:52:13;;;;;;;3.40;2.80;;;18.40;99.90;;;;;;5061638;28;37201;-89
2022/06/27 00:54:41;;;;;;;5.80;3.10;;;18.40;99.90;;;;;;5046235;28;39020;-88
2022/06/27 00:57:10;;;;;;;5.38;3.00;;;18.40;99.90;;;;;;5062056;28;37823;-89
2022/06/27 00:59:36;;;;;;;4.80;3.08;;;18.50;99.90;;;;;;5045827;28;37987;-88
2022/06/27 01:02:03;;;;;;;4.38;2.92;;;18.50;99.90;;;;;;5047065;28;36482;-86
2022/06/27 01:04:30;;;;;;;5.25;2.63;;;18.50;99.90;;;;;;5059544;28;37664;-88
2022/06/27 01:06:56;;;;;;;6.03;3.22;;;18.50;99.90;;;;;;5042225;28;38862;-87
2022/06/27 01:09:23;;;;;;;7.00;3.58;;;18.50;99.90;;;;;;5043938;28;38215;-88
2022/06/27 01:11:50;;;;;;;4.35;2.70;;;18.40;99.90;;;;;;5044438;28;37042;-88
2022/06/27 01:14:17;;;;;;;4.45;2.90;;;18.40;99.90;;;;;;5042363;28;37695;-87
2022/06/27 01:16:44;;;;;;;5.75;3.10;;;18.30;99.90;;;;;;5056815;28;38112;-88
2022/06/27 01:19:13;;;;;;;7.07;3.08;;;18.30;99.90;;;;;;5042884;28;37480;-88
2022/06/27 01:21:45;;;;;;;3.63;3.15;;;18.30;99.90;;;;;;5061581;28;36206;-86
2022/06/27 01:24:11;;;;;;;5.88;3.00;;;18.40;99.90;;;;;;5044279;28;38213;-87
2022/06/27 01:26:37;;;;;;;6.55;3.78;;;18.40;99.90;;;;;;5060192;28;39105;-87
2022/06/27 01:29:04;;;;;;;5.90;3.60;;;18.40;99.90;;;;;;5044176;28;37289;-87
2022/06/27 01:31:31;;;;;;;4.00;3.38;;;18.40;99.90;;;;;;5043860;28;38072;-87
2022/06/27 01:33:57;;;;;;;3.45;3.03;;;18.40;99.90;;;;;;5045010;28;37922;-87
2022/06/27 01:36:41;;;;;;;7.22;3.50;;;18.40;99.90;;;;;;5043905;28;38963;-88
2022/06/27 01:39:24;;;;;;;6.40;3.22;;;18.30;99.90;;;;;;5058776;28;37926;-88
2022/06/27 01:41:59;;;;;;;5.57;3.38;;;18.30;99.90;;;;;;5056084;28;37453;-88
2022/06/27 01:44:28;;;;;;;4.13;3.15;;;18.30;99.90;;;;;;5039960;28;38901;-88
2022/06/27 01:46:58;;;;;;;7.78;3.78;;;18.30;99.90;;;;;;5041950;28;39630;-88
2022/06/27 01:49:25;;;;;;;3.97;3.28;;;18.20;99.90;;;;;;5044232;28;38456;-88
2022/06/27 01:51:51;;;;;;;3.97;3.42;;;18.20;99.90;;;;;;5043960;28;36062;-89
2022/06/27 01:54:20;;;;;;;9.35;4.10;;;18.20;99.90;;;;;;5045044;28;37818;-88
2022/06/27 01:56:47;;;;;;;6.95;3.90;;;18.20;99.90;;;;;;5044160;28;39369;-88
2022/06/27 01:59:16;;;;;;;6.07;3.47;;;18.10;99.90;;;;;;5059034;28;38582;-88
2022/06/27 02:01:45;;;;;;;5.15;3.20;;;18.10;99.90;;;;;;5046497;28;37555;-88
2022/06/27 02:04:13;;;;;;;6.32;3.92;;;18.10;99.90;;;;;;5044110;28;37623;-88
2022/06/27 02:06:42;;;;;;;6.70;3.90;;;18.10;99.90;;;;;;5042480;28;38030;-89
2022/06/27 02:09:10;;;;;;;6.50;3.97;;;18.10;99.90;;;;;;5045686;28;38313;-88
2022/06/27 02:11:42;;;;;;;5.43;3.65;;;18.10;99.90;;;;;;5044415;28;38360;-87
2022/06/27 02:14:08;;;;;;;4.90;3.60;;;18.10;99.90;;;;;;5061560;28;37727;-88
2022/06/27 02:16:34;;;;;;;5.80;3.47;;;18.10;99.90;;;;;;5045962;28;36565;-88
2022/06/27 02:19:01;;;;;;;6.70;3.58;;;18.10;99.90;;;;;;5051122;28;38424;-88
2022/06/27 02:21:30;;;;;;;7.20;4.00;;;18.00;99.90;;;;;;5060662;28;47644;-88
2022/06/27 02:23:57;;;;;;;8.77;4.38;;;18.00;99.90;;;;;;5067264;28;37998;-88
2022/06/27 02:26:25;;;;;;;6.25;3.55;;;18.00;99.90;;;;;;5068031;28;38216;-88
2022/06/27 02:28:53;;;;;;;8.73;4.00;;;17.90;99.90;;;;;;5068134;28;38360;-88
2022/06/27 02:31:20;;;;;;;8.00;4.30;;;17.90;99.90;;;;;;5071367;28;37969;-88
2022/06/27 02:33:48;;;;;;;7.47;3.65;;;17.90;99.90;;;;;;5048591;28;38037;-88
2022/06/27 02:36:21;;;;;;;7.68;3.95;;;17.80;99.90;;;;;;5061629;28;38988;-87
2022/06/27 02:38:51;;;;;;;4.75;3.55;;;17.80;99.90;;;;;;5049097;28;37261;-89
2022/06/27 02:41:20;;;;;;;8.43;3.90;;;17.70;99.90;;;;;;5062682;28;36538;-89
2022/06/27 02:43:55;;;;;;;5.82;3.83;;;17.70;99.90;;;;;;5044811;28;37685;-89
2022/06/27 02:46:21;;;;;;;7.22;4.75;;;17.70;99.90;;;;;;5061492;28;37759;-89
2022/06/27 02:48:49;;;;;;;6.28;3.78;;;17.70;99.90;;;;;;5043935;28;37342;-89
2022/06/27 02:51:21;;;;;;;6.55;3.75;;;17.70;99.90;;;;;;5045619;28;36959;-89
2022/06/27 02:53:54;;;;;;;9.40;4.80;;;17.60;99.90;;;;;;5046706;28;37929;-89
2022/06/27 02:56:24;;;;;;;6.15;4.18;;;17.60;99.90;;;;;;5043165;28;38706;-89
2022/06/27 02:59:06;;;;;;;7.18;3.92;;;17.60;99.90;;;;;;5063098;28;37452;-88
2022/06/27 03:01:33;;;;;;;8.57;4.37;;;17.60;99.90;;;;;;5042244;28;47184;-88
2022/06/27 03:04:00;;;;;;;6.32;3.63;;;17.50;99.90;;;;;;5046537;28;38925;-89
2022/06/27 03:06:27;;;;;;;8.63;3.80;;;17.50;99.90;;;;;;5049968;28;39074;-89
2022/06/27 03:08:53;;;;;;;6.22;4.00;;;17.50;99.90;;;;;;5045965;28;38741;-90
2022/06/27 03:11:21;;;;;;;6.88;4.43;;;17.40;99.90;;;;;;5048623;28;37898;-89
2022/06/27 03:13:48;;;;;;;7.93;4.35;;;17.40;99.90;;;;;;5049281;28;40301;-89
2022/06/27 03:16:15;;;;;;;6.50;3.90;;;17.40;99.90;;;;;;5043378;28;38363;-89
2022/06/27 03:18:42;;;;;;;4.82;4.15;;;17.30;99.90;;;;;;5045170;28;38963;-89
2022/06/27 03:21:11;;;;;;;7.28;4.00;;;17.30;99.90;;;;;;5045047;28;34607;-89
2022/06/27 03:23:38;;;;;;;6.70;4.28;;;17.20;99.90;;;;;;5057555;28;38039;-89
2022/06/27 03:26:05;;;;;;;7.18;3.67;;;17.10;99.90;;;;;;5059888;28;37989;-90
2022/06/27 03:28:31;;;;;;;6.93;4.22;;;17.00;99.90;;;;;;5042564;28;38639;-90
2022/06/27 03:30:57;;;;;;;4.70;3.88;;;17.00;99.90;;;;;;5058522;28;36688;-90
2022/06/27 03:33:23;;;;;;;6.68;4.47;;;17.00;99.90;;;;;;5044020;28;38129;-89
2022/06/27 03:35:50;;;;;;;6.20;4.70;;;16.90;99.90;;;;;;5045374;28;38246;-90
2022/06/27 03:38:16;;;;;;;6.18;4.38;;;16.90;99.90;;;;;;5047055;28;37736;-89
2022/06/27 03:40:42;;;;;;;6.45;4.75;;;16.90;99.90;;;;;;5046792;28;36860;-90
2022/06/27 03:43:08;;;;;;;8.10;4.20;;;16.90;99.90;;;;;;5044167;28;37899;-89
2022/06/27 03:45:34;;;;;;;6.57;4.68;;;16.90;99.90;;;;;;5034854;28;38903;-89
2022/06/27 03:48:03;;;;;;;7.80;4.18;;;16.80;99.90;;;;;;5046070;28;37246;-90
2022/06/27 03:50:29;;;;;;;5.32;4.05;;;16.80;99.90;;;;;;5043833;28;47055;-91
2022/06/27 03:52:56;;;;;;;8.23;4.40;;;16.80;99.90;;;;;;5043950;28;38165;-90
2022/06/27 03:55:23;;;;;;;7.03;4.22;;;16.70;99.90;;;;;;5060088;28;38036;-90
2022/06/27 03:57:56;;;;;;;7.65;4.65;;;16.70;99.90;;;;;;5058099;28;39751;-89
2022/06/27 04:00:24;;;;;;;5.47;3.80;;;16.70;99.90;;;;;;5059247;28;35985;-90
2022/06/27 04:02:51;;;;;;;5.15;3.95;;;16.70;99.90;;;;;;5043285;28;39328;-89
2022/06/27 04:05:18;;;;;;;6.65;4.60;;;16.70;99.90;;;;;;5061316;28;38843;-89
2022/06/27 04:07:44;;;;;;;4.95;4.40;;;16.70;99.90;;;;;;5046201;28;38690;-89
2022/06/27 04:10:12;;;;;;;4.50;3.97;;;16.80;99.90;;;;;;5037800;28;39767;-89
2022/06/27 04:12:38;;;;;;;10.07;4.95;;;16.80;99.90;;;;;;5045961;28;38803;-89
2022/06/27 04:15:05;;;;;;;5.65;4.13;;;16.80;99.90;;;;;;5044080;28;38093;-89
2022/06/27 04:17:32;;;;;;;7.75;4.60;;;16.80;99.90;;;;;;5046343;28;38002;-89
2022/06/27 04:19:58;;;;;;;6.10;4.40;;;16.80;99.90;;;;;;5044657;28;34711;-89
2022/06/27 04:22:24;;;;;;;6.55;4.90;;;16.80;99.90;;;;;;5043846;28;38802;-89
2022/06/27 04:24:51;;;;;;;6.10;4.68;;;16.80;99.90;;;;;;5044663;28;38351;-89
2022/06/27 04:27:19;;;;;;;5.53;4.07;;;16.80;99.90;;;;;;5045911;28;38780;-89
2022/06/27 04:29:48;;;;;;;7.43;4.35;;;16.90;99.90;;;;;;5043552;28;37489;-89
2022/06/27 04:32:18;;;;;;;6.32;3.95;;;16.90;99.90;;;;;;5044278;28;39357;-88
2022/06/27 04:34:44;;;;;;;5.00;4.50;;;16.90;99.90;;;;;;5043239;28;38832;-89
2022/06/27 04:37:11;;;;;;;6.40;4.60;;;17.00;99.90;;;;;;5043961;28;37314;-89
2022/06/27 04:39:38;;;;;;;6.47;4.38;;;17.10;99.90;;;;;;5045390;28;35943;-89
2022/06/27 04:42:06;;;;;;;7.50;4.88;;;17.10;99.90;;;;;;5042938;28;37579;-89
2022/06/27 04:44:34;;;;;;;6.32;4.28;;;17.10;99.90;;;;;;5043534;28;37995;-89
2022/06/27 04:47:02;;;;;;;7.75;4.60;;;17.10;99.90;;;;;;5045962;28;39253;-89
2022/06/27 04:49:28;;;;;;;5.78;4.70;;;17.20;99.90;;;;;;5044521;28;47397;-89
2022/06/27 04:51:56;;;;;;;5.75;4.75;;;17.10;99.90;;;;;;5045208;28;38851;-88
2022/06/27 04:54:22;;;;;;;9.10;5.47;;;17.20;99.90;;;;;;5058514;28;38193;-89
2022/06/27 04:56:49;;;;;;;5.70;5.13;;;17.10;99.90;;;;;;5044912;28;37523;-89
2022/06/27 04:59:16;;;;;;;10.35;5.88;;;17.20;99.90;;;;;;5044726;28;37252;-89
2022/06/27 05:01:42;;;;;;;7.30;5.82;;;17.10;99.90;;;;;;5042954;28;39039;-89
2022/06/27 05:04:08;;;;;;;7.13;5.65;;;17.10;99.90;;;;;;5040600;28;39042;-89
2022/06/27 05:06:34;;;;;;;6.65;5.97;;;17.00;99.90;;;;;;5041737;28;38091;-88
2022/06/27 05:09:00;;;;;;;8.63;6.05;;;17.10;99.90;;;;;;5044909;28;36277;-89
2022/06/27 05:11:27;;;;;;;11.27;7.13;;;17.30;99.90;;;;;;5063427;28;39025;-89
2022/06/27 05:13:53;;;;;;;7.97;7.18;;;17.60;99.90;;;;;;5051631;28;38770;-89
2022/06/27 05:16:19;;;;;;;9.00;6.57;;;17.90;99.90;;;;;;5065100;28;38323;-88
2022/06/27 05:18:46;;;;;;;7.22;5.90;;;18.00;99.90;;;;;;5067012;28;37029;-87
2022/06/27 05:21:12;;;;;;;9.65;6.00;;;18.00;99.90;;;;;;5065295;28;38014;-88
2022/06/27 05:23:38;;;;;;;7.32;5.30;;;18.00;99.90;;;;;;5050535;28;38708;-87
2022/06/27 05:26:05;;;;;;;6.10;5.47;;;17.90;99.90;;;;;;5063650;28;38591;-87
2022/06/27 05:28:31;;;;;;;8.27;5.03;;;17.90;99.90;;;;;;5042308;28;36893;-87
2022/06/27 05:30:58;;;;;;;8.48;6.55;;;17.90;99.90;;;;;;5057023;28;37943;-86
2022/06/27 05:33:24;;;;;;;11.35;7.20;;;17.80;99.90;;;;;;5043616;28;38056;-87
2022/06/27 05:35:52;;;;;;;9.13;8.00;;;17.70;99.90;;;;;;5044245;28;37392;-87
2022/06/27 05:38:18;;;;;;;11.18;6.82;;;17.60;99.90;;;;;;5045866;28;36295;-86
2022/06/27 05:40:45;;;;;;;11.65;7.07;;;17.60;99.90;;;;;;5044555;28;39213;-87
2022/06/27 05:43:14;;;;;;;9.50;6.43;;;17.70;99.90;;;;;;5059596;28;38157;-87
2022/06/27 05:45:40;;;;;;;7.75;6.15;;;17.70;99.90;;;;;;5059586;28;38444;-87
2022/06/27 05:48:07;;;;;;;9.38;6.70;;;17.80;99.90;;;;;;5047823;28;36676;-87
2022/06/27 05:50:33;;;;;;;7.47;6.25;;;17.90;99.90;;;;;;5046717;28;37932;-86
2022/06/27 05:53:01;;;;;;;8.70;6.95;;;17.80;99.90;;;;;;5063265;28;38496;-86
2022/06/27 05:55:28;;;;;;;8.00;6.75;;;17.90;99.90;;;;;;5045400;28;37417;-86
2022/06/27 05:57:58;;;;;;;8.30;6.82;;;17.90;99.90;;;;;;5046893;28;37851;-86
2022/06/27 06:00:25;;;;;;;9.70;7.07;;;17.90;99.90;;;;;;5056509;28;38692;-85
2022/06/27 06:02:52;;;;;;;8.98;7.75;;;18.00;99.90;;;;;;5045586;28;38508;-85
2022/06/27 06:05:18;;;;;;;11.77;8.77;;;18.10;99.90;;;;;;5044065;28;37451;-85
2022/06/27 06:07:45;;;;;;;9.30;6.88;;;18.10;99.90;;;;;;5044515;28;36437;-86
2022/06/27 06:10:12;;;;;;;10.60;7.78;;;18.10;99.90;;;;;;5041756;28;37835;-85
2022/06/27 06:12:38;;;;;;;10.43;8.30;;;18.10;99.90;;;;;;5045567;28;37384;-85
2022/06/27 06:15:06;;;;;;;11.50;8.23;;;18.20;99.90;;;;;;5042256;28;39057;-84
2022/06/27 06:17:34;;;;;;;10.95;8.73;;;18.20;99.90;;;;;;5043991;28;36484;-85
2022/06/27 06:20:02;;;;;;;10.63;8.77;;;18.30;99.90;;;;;;5041710;28;39393;-86
2022/06/27 06:22:28;;;;;;;10.20;8.35;;;18.30;99.90;;;;;;5058688;27;46744;-84
2022/06/27 06:24:55;;;;;;;11.80;7.60;;;18.40;99.90;;;;;;5045223;28;37491;-84
2022/06/27 06:27:21;;;;;;;10.60;8.38;;;18.50;99.90;;;;;;5041233;28;37086;-84
2022/06/27 06:29:47;;;;;;;11.20;8.75;;;18.50;99.90;;;;;;5054068;28;39016;-84
2022/06/27 06:32:14;;;;;;;14.63;9.20;;;18.40;99.90;;;;;;5059970;28;38828;-85
2022/06/27 06:34:41;;;;;;;11.80;9.77;;;18.40;99.90;;;;;;5044167;28;37730;-90
2022/06/27 06:37:09;;;;;;;12.95;9.77;;;18.40;99.90;;;;;;5042310;28;37074;-89
2022/06/27 06:39:36;;;;;;;18.83;10.27;;;18.30;99.90;;;;;;5057442;28;39331;-88
2022/06/27 06:42:04;;;;;;;16.08;10.65;;;18.30;99.90;;;;;;5056976;28;39421;-86
2022/06/27 06:44:30;;;;;;;12.18;10.27;;;18.30;99.90;;;;;;5047046;28;40925;-87
2022/06/27 06:46:56;;;;;;;13.13;9.23;;;18.30;99.90;;;;;;5043215;28;38339;-85
2022/06/27 06:49:23;;;;;;;11.30;9.38;;;18.30;99.90;;;;;;5053278;28;39052;-86
2022/06/27 06:51:50;;;;;;;12.20;8.95;;;18.40;99.90;;;;;;5049841;28;39847;-81
2022/06/27 06:54:20;;;;;;;11.90;9.70;;;18.40;99.90;;;;;;5056110;28;38440;-85
2022/06/27 06:56:52;;;;;;;13.15;9.68;;;18.40;99.90;;;;;;5046695;28;37420;-86
2022/06/27 06:59:19;;;;;;;12.38;9.65;;;18.60;99.90;;;;;;5045939;28;38780;-82
2022/06/27 07:01:47;;;;;;;8.77;7.95;;;18.50;99.90;;;;;;5038287;28;39768;-82
2022/06/27 07:04:14;;;;;;;13.02;8.35;;;18.50;99.90;;;;;;5032838;28;38522;-82
2022/06/27 07:06:40;;;;;;;12.50;8.95;;;18.60;99.90;;;;;;5038547;28;35887;-82
2022/06/27 07:09:06;;;;;;;10.05;7.00;;;18.70;99.90;;;;;;5051796;28;37579;-82
2022/06/27 07:11:35;;;;;;;9.13;8.13;;;18.80;99.90;;;;;;5057801;28;39072;-79
2022/06/27 07:14:01;;;;;;;8.77;7.88;;;18.80;99.90;;;;;;5036490;28;37853;-81
2022/06/27 07:16:28;;;;;;;10.55;8.32;;;18.90;99.90;;;;;;5042393;28;47357;-79
2022/06/27 07:18:58;;;;;;;10.02;7.38;;;18.90;99.90;;;;;;5041886;28;38105;-80
2022/06/27 07:21:26;;;;;;;11.93;7.65;;;19.10;99.90;;;;;;5059304;28;37918;-80
2022/06/27 07:23:53;;;;;;;9.38;8.07;;;19.10;99.90;;;;;;5060518;28;37334;-81
2022/06/27 07:26:21;;;;;;;10.30;8.48;;;19.10;99.90;;;;;;5038092;28;36397;-80
2022/06/27 07:28:48;;;;;;;12.10;8.48;;;19.10;99.90;;;;;;5045187;28;37851;-82
2022/06/27 07:31:16;;;;;;;10.38;8.20;;;18.90;99.90;;;;;;5042465;28;37867;-83
2022/06/27 07:33:44;;;;;;;9.27;7.32;;;18.90;99.90;;;;;;5059030;28;37296;-81
2022/06/27 07:36:18;;;;;;;10.32;7.60;;;19.00;99.90;;;;;;5059232;28;36185;-81
2022/06/27 07:38:47;;;;;;;10.85;8.57;;;19.10;99.90;;;;;;5048334;28;37405;-82
2022/06/27 07:41:15;;;;;;;10.27;7.90;;;18.90;99.90;;;;;;5045958;28;39135;-83
2022/06/27 07:43:44;;;;;;;10.07;8.02;;;18.90;99.90;;;;;;5058218;28;38830;-80
2022/06/27 07:46:10;;;;;;;15.05;8.23;;;19.00;99.90;;;;;;5043796;28;36519;-81
2022/06/27 07:48:37;;;;;;;11.52;7.65;;;19.00;99.90;;;;;;5039544;28;39424;-81
2022/06/27 07:51:03;;;;;;;10.43;8.27;;;19.10;99.90;;;;;;5043431;28;37793;-82
2022/06/27 07:53:30;;;;;;;10.93;7.78;;;19.20;99.90;;;;;;5062916;28;37386;-84
2022/06/27 07:55:59;;;;;;;13.00;7.88;;;19.30;99.90;;;;;;5061162;28;37171;-83
2022/06/27 07:58:30;;;;;;;10.18;7.38;;;19.30;99.90;;;;;;5042165;28;38483;-83
2022/06/27 08:00:59;;;;;;;11.38;8.27;;;19.30;99.90;;;;;;5044791;28;39553;-84
2022/06/27 08:03:40;;;;;;;10.88;8.07;;;19.20;99.90;;;;;;5044965;28;38579;-84
2022/06/27 08:06:10;;;;;;;14.32;8.85;;;19.20;99.90;;;;;;5045892;28;37200;-83
2022/06/27 08:08:37;;;;;;;12.98;7.82;;;19.30;99.90;;;;;;5043108;28;37878;-84
2022/06/27 08:11:06;;;;;;;10.07;6.78;;;19.30;99.90;;;;;;5052037;28;38795;-82
2022/06/27 08:13:33;;;;;;;7.70;6.30;;;19.40;99.90;;;;;;5068474;28;39522;-82
2022/06/27 08:15:59;;;;;;;9.50;6.63;;;19.40;99.90;;;;;;5065453;28;37733;-82
2022/06/27 08:18:27;;;;;;;9.07;7.15;;;19.60;99.90;;;;;;5044745;28;38269;-85
2022/06/27 08:20:53;;;;;;;9.85;6.55;;;19.60;99.90;;;;;;5061966;28;37803;-81
2022/06/27 08:23:20;;;;;;;7.30;5.35;;;19.70;99.90;;;;;;5046469;28;38294;-81
2022/06/27 08:25:47;;;;;;;9.93;5.82;;;19.90;99.90;;;;;;5045310;28;36657;-82
2022/06/27 08:28:16;;;;;;;10.25;6.10;;;20.10;99.90;;;;;;5050015;28;39036;-81
2022/06/27 08:30:43;;;;;;;9.00;6.20;;;20.30;99.90;;;;;;5043628;28;38992;-81
2022/06/27 08:33:12;;;;;;;8.15;5.35;;;20.10;99.90;;;;;;5044680;28;39455;-81
2022/06/27 08:35:47;;;;;;;8.95;4.70;;;20.00;99.90;;;;;;5042325;28;37287;-82
2022/06/27 08:38:15;;;;;;;7.45;4.90;;;20.20;99.90;;;;;;5041640;28;38828;-82
2022/06/27 08:40:41;;;;;;;5.70;3.90;;;20.30;99.90;;;;;;5041625;28;39548;-83
2022/06/27 08:43:11;;;;;;;5.75;4.20;;;20.40;99.90;;;;;;5059419;28;37809;-82
2022/06/27 08:45:38;;;;;;;7.15;4.13;;;20.30;99.90;;;;;;5043167;28;37981;-83
2022/06/27 08:48:07;;;;;;;8.73;4.53;;;20.40;99.90;;;;;;5046921;28;39392;-82
2022/06/27 08:50:35;;;;;;;5.93;3.50;;;20.30;99.90;;;;;;5042665;28;39820;-85
2022/06/27 08:53:04;;;;;;;6.90;3.35;;;20.30;99.90;;;;;;5042587;28;40070;-84
2022/06/27 08:55:33;;;;;;;7.30;3.67;;;20.40;99.90;;;;;;5044858;28;47557;-81
2022/06/27 08:58:05;;;;;;;6.35;3.80;;;20.50;99.90;;;;;;5043808;28;38707;-80
2022/06/27 09:00:33;;;;;;;7.88;4.00;;;20.40;99.90;;;;;;5058668;28;47779;-81
2022/06/27 09:03:00;;;;;;;8.63;3.85;;;20.10;99.90;;;;;;5045802;28;38129;-78
2022/06/27 09:05:28;;;;;;;7.32;3.65;;;20.00;99.90;;;;;;5041721;28;36359;-80
2022/06/27 09:07:57;;;;;;;10.77;3.15;;;19.90;99.90;;;;;;5059830;28;38667;-79
2022/06/27 09:10:31;;;;;;;5.97;2.80;;;19.90;99.90;;;;;;5041584;28;38084;-80
2022/06/27 09:13:12;;;;;;;8.10;2.63;;;19.90;99.90;;;;;;5053503;28;38959;-81
2022/06/27 09:15:59;;;;;;;6.25;2.65;;;19.90;99.90;;;;;;5032416;28;47206;-81
2022/06/27 09:18:36;;;;;;;7.78;3.08;;;19.90;99.90;;;;;;5042513;28;39833;-81
2022/06/27 09:21:11;;;;;;;7.78;3.35;;;19.90;99.90;;;;;;5037349;28;38847;-81
2022/06/27 09:24:01;;;;;;;6.47;3.05;;;19.90;99.90;;;;;;5039780;28;37575;-81
2022/06/27 09:26:38;;;;;;;5.25;3.28;;;20.00;99.90;;;;;;5037962;28;47468;-81
2022/06/27 09:29:10;;;;;;;5.78;3.00;;;20.20;99.90;;;;;;5037759;28;37613;-80
2022/06/27 09:31:45;;;;;;;9.68;2.70;;;20.40;99.90;;;;;;5043311;28;38234;-80
2022/06/27 09:34:23;;;;;;;7.38;2.30;;;20.60;99.90;;;;;;5040224;28;37752;-80
2022/06/27 09:36:50;;;;;;;7.43;2.65;;;20.50;99.90;;;;;;5037119;28;37417;-81
2022/06/27 09:39:21;;;;;;;9.30;2.80;;;20.40;99.90;;;;;;5041321;28;39831;-81
2022/06/27 09:42:13;;;;;;;4.88;2.05;;;20.30;99.90;;;;;;5054103;28;39157;-81
2022/06/27 09:44:42;;;;;;;4.90;2.13;;;20.40;99.90;;;;;;5037743;28;48719;-86
2022/06/27 09:47:19;;;;;;;3.25;1.60;;;20.50;99.90;;;;;;5043488;28;38394;-84
2022/06/27 09:49:50;;;;;;;4.97;1.70;;;20.70;99.90;;;;;;5042133;28;37890;-84
2022/06/27 09:52:24;;;;;;;5.35;1.60;;;20.90;99.90;;;;;;5059685;28;38131;-85
2022/06/27 09:54:53;;;;;;;4.93;2.10;;;21.00;99.90;;;;;;5042667;28;38524;-86
2022/06/27 09:57:20;;;;;;;4.32;1.50;;;21.20;99.90;;;;;;5058427;28;36175;-86
2022/06/27 09:59:48;;;;;;;6.50;2.00;;;21.30;99.90;;;;;;5038636;28;37866;-86
2022/06/27 10:02:17;;;;;;;3.40;1.67;;;21.10;99.90;;;;;;5042551;28;39204;-86
2022/06/27 10:04:44;;;;;;;3.58;1.67;;;20.90;99.90;;;;;;5039601;28;37265;-86
2022/06/27 10:07:13;;;;;;;4.10;1.88;;;20.90;99.90;;;;;;5055108;28;36371;-86
2022/06/27 10:09:40;;;;;;;3.50;1.50;;;20.90;99.90;;;;;;5056430;28;38494;-86
2022/06/27 10:12:22;;;;;;;6.55;1.67;;;20.90;99.90;;;;;;5043004;28;38851;-85
2022/06/27 10:15:10;;;;;;;4.93;1.42;;;20.50;99.90;;;;;;5057131;28;37771;-85
2022/06/27 10:17:43;;;;;;;7.50;2.15;;;20.40;99.90;;;;;;5059069;28;47450;-86
2022/06/27 10:20:21;;;;;;;8.40;2.50;;;20.40;99.90;;;;;;5059761;28;38202;-83
2022/06/27 10:23:10;;;;;;;7.05;1.83;;;20.30;99.90;;;;;;5047810;28;38733;-83
2022/06/27 10:25:48;;;;;;;5.72;1.90;;;20.30;99.90;;;;;;5031434;28;47236;-82
2022/06/27 10:28:16;;;;;;;6.78;1.95;;;20.40;99.90;;;;;;5047561;28;36484;-83
2022/06/27 10:30:51;;;;;;;5.93;1.95;;;20.50;99.90;;;;;;5066338;28;38754;-83
2022/06/27 10:33:25;;;;;;;5.35;2.10;;;20.50;99.90;;;;;;5058863;28;37930;-83
2022/06/27 10:38:26;;;;;;;2.50;1.60;;;20.40;99.90;;;;;;5049564;28;38256;-84
2022/06/27 10:40:54;;;;;;;10.20;2.00;;;20.40;99.90;;;;;;5039573;28;39295;-83
2022/06/27 10:43:50;;;;;;;5.75;1.60;;;20.50;99.90;;;;;;5057874;28;39240;-82
2022/06/27 10:46:16;;;;;;;6.35;1.83;;;20.80;99.90;;;;;;5035474;28;37797;-82
2022/06/27 10:48:49;;;;;;;4.93;1.35;;;20.80;99.90;;;;;;5045750;28;37514;-82
2022/06/27 10:51:31;;;;;;;3.72;1.23;;;20.80;99.90;;;;;;5042480;28;39223;-80
2022/06/27 10:54:06;;;;;;;2.47;1.20;;;21.10;99.90;;;;;;5041803;28;38611;-85
2022/06/27 10:56:36;;;;;;;4.70;2.15;;;21.30;99.90;;;;;;5050453;28;49009;-87
2022/06/27 10:59:29;;;;;;;9.18;1.75;;;21.50;99.90;;;;;;5055197;28;37123;-85
2022/06/27 11:02:33;;;;;;;5.10;1.73;;;21.30;99.90;;;;;;5049824;28;48979;-85
2022/06/27 11:05:19;;;;;;;5.32;2.00;;;21.30;99.90;;;;;;5051208;28;47292;-85
2022/06/27 11:07:53;;;;;;;7.05;1.75;;;21.50;99.90;;;;;;5056208;28;48704;-82
2022/06/27 11:10:22;;;;;;;4.90;1.60;;;21.50;99.90;;;;;;5062591;28;38008;-84
2022/06/27 11:12:56;;;;;;;1.63;1.15;;;21.50;99.90;;;;;;5071768;28;38955;-82
2022/06/27 11:15:32;;;;;;;7.15;1.48;;;21.40;99.90;;;;;;5048359;28;39185;-82
2022/06/27 11:17:58;;;;;;;6.07;1.70;;;21.50;99.90;;;;;;5042665;28;38046;-82
2022/06/27 11:20:26;;;;;;;3.53;1.70;;;21.50;99.90;;;;;;5058544;28;37238;-82
2022/06/27 11:23:08;;;;;;;4.93;1.50;;;21.40;99.90;;;;;;5046221;28;37892;-82
2022/06/27 11:25:41;;;;;;;4.53;1.50;;;21.30;99.90;;;;;;5042482;28;47113;-81
2022/06/27 11:33:41;;;;;;;7.47;1.90;;;20.90;99.90;;;;;;5047855;28;49369;-81
2022/06/27 11:36:13;;;;;;;5.45;2.22;;;20.90;99.90;;;;;;5064403;28;37845;-82
2022/06/27 11:38:49;;;;;;;5.60;2.20;;;20.70;99.90;;;;;;5047802;28;38730;-81
2022/06/27 11:41:24;;;;;;;9.05;3.58;;;20.50;99.90;;;;;;5046984;28;37737;-82
2022/06/27 11:44:09;;;;;;;5.75;2.40;;;20.40;99.90;;;;;;5038601;28;39804;-81
2022/06/27 11:46:49;;;;;;;8.60;3.50;;;20.30;99.90;;;;;;5063611;28;47344;-81
2022/06/27 11:49:34;;;;;;;7.00;2.83;;;20.20;99.90;;;;;;5062286;28;37684;-82
2022/06/27 11:52:36;;;;;;;7.00;2.63;;;20.20;99.90;;;;;;5045536;28;38356;-81
2022/06/27 11:55:08;;;;;;;7.45;4.60;;;20.30;99.90;;;;;;5060236;28;47352;-82
2022/06/27 11:57:36;;;;;;;9.18;6.13;;;20.40;99.90;;;;;;5045977;28;37826;-81
2022/06/27 12:00:06;;;;;;;11.02;5.80;;;20.40;99.90;;;;;;5048248;28;38495;-85
2022/06/27 12:02:38;;;;;;;8.52;5.22;;;20.40;99.90;;;;;;5047316;28;36679;-81
2022/06/27 12:05:09;;;;;;;9.48;2.88;;;20.30;99.90;;;;;;5041845;28;38811;-82
2022/06/27 12:07:53;;;;;;;4.00;1.90;;;19.90;99.90;;;;;;5045752;28;37738;-82
2022/06/27 12:10:39;;;;;;;10.63;2.42;;;19.60;99.90;;;;;;5047816;28;39021;-83
2022/06/27 12:13:14;;;;;;;5.47;2.13;;;19.30;99.90;;;;;;5037534;28;36556;-84
2022/06/27 12:15:43;;;;;;;11.77;2.95;;;19.20;99.90;;;;;;5043198;28;39575;-84
2022/06/27 12:18:12;;;;;;;10.60;3.38;;;18.50;99.90;;;;;;5041348;28;39052;-81
2022/06/27 12:20:41;;;;;;;13.57;3.92;;;17.30;99.90;;;;;;5044483;28;38537;-80
2022/06/27 12:23:07;;;;;;;11.45;3.45;;;16.50;99.90;;;;;;5041609;28;35206;-84
2022/06/27 12:25:36;;;;;;;11.48;3.72;;;16.10;99.90;;;;;;5058024;28;37903;-84
2022/06/27 12:28:06;;;;;;;10.38;4.05;;;15.80;99.90;;;;;;5048859;28;37989;-80
2022/06/27 12:30:33;;;;;;;10.00;3.78;;;15.50;99.90;;;;;;5039933;28;39074;-84
2022/06/27 12:33:00;;;;;;;12.80;4.13;;;15.40;99.90;;;;;;5042970;28;37337;-83
2022/06/27 12:35:26;;;;;;;13.00;5.05;;;15.40;99.90;;;;;;5041831;28;38919;-78
2022/06/27 12:37:59;;;;;;;9.00;3.50;;;15.40;99.90;;;;;;5059307;28;38277;-80
2022/06/27 12:40:25;;;;;;;16.55;4.00;;;15.30;99.90;;;;;;5042854;28;37815;-83
2022/06/27 12:42:51;;;;;;;16.25;4.35;;;15.30;99.90;;;;;;5069612;28;38918;-84
2022/06/27 12:45:17;;;;;;;10.23;3.25;;;15.20;99.90;;;;;;5041455;28;36857;-83
2022/06/27 12:47:43;;;;;;;10.63;3.75;;;15.20;99.90;;;;;;5044589;28;39860;-81
2022/06/27 12:50:09;;;;;;;10.10;3.53;;;15.10;99.90;;;;;;5041896;28;38971;-83
2022/06/27 12:52:37;;;;;;;8.65;3.35;;;15.20;99.90;;;;;;5051350;28;20045;-85
2022/06/27 12:55:04;;;;;;;12.48;3.58;;;15.20;99.90;;;;;;5041753;28;37971;-85
2022/06/27 12:57:30;;;;;;;10.02;3.92;;;15.20;99.90;;;;;;5045502;28;39400;-85
2022/06/27 12:59:56;;;;;;;11.40;3.78;;;15.30;99.90;;;;;;5057684;28;38319;-85
2022/06/27 13:02:22;;;;;;;7.53;3.20;;;15.30;99.90;;;;;;5043847;28;34995;-85
2022/06/27 13:04:48;;;;;;;9.88;3.40;;;15.40;99.90;;;;;;5053529;28;38548;-86